sensor_id;sensor_type;location;lat;lon;timestamp;P1;durP1;ratioP1;P2;durP2;ratioP2
9076;SDS011;4574;51.072;17.174;2023-12-20T00:02:10;17.80;;;10.10;;
9076;SDS011;4574;51.072;17.174;2023-12-20T00:04:38;10.77;;;8.40;;
9076;SDS011;4574;51.072;17.174;2023-12-20T00:07:07;11.20;;;7.80;;
9076;SDS011;4574;51.072;17.174;2023-12-20T00:09:36;11.60;;;6.93;;
9076;SDS011;4574;51.072;17.174;2023-12-20T00:12:06;8.70;;;6.10;;
9076;SDS011;4574;51.072;17.174;2023-12-20T00:14:35;8.77;;;6.20;;
9076;SDS011;4574;51.072;17.174;2023-12-20T00:17:04;8.70;;;6.40;;
9076;SDS011;4574;51.072;17.174;2023-12-20T00:19:33;9.83;;;6.23;;
9076;SDS011;4574;51.072;17.174;2023-12-20T00:22:01;8.17;;;6.10;;
9076;SDS011;4574;51.072;17.174;2023-12-20T00:24:30;7.67;;;5.80;;
9076;SDS011;4574;51.072;17.174;2023-12-20T00:26:58;7.43;;;5.90;;
9076;SDS011;4574;51.072;17.174;2023-12-20T00:29:28;8.63;;;6.13;;
9076;SDS011;4574;51.072;17.174;2023-12-20T00:31:57;9.10;;;5.90;;
9076;SDS011;4574;51.072;17.174;2023-12-20T00:34:26;9.63;;;5.57;;
9076;SDS011;4574;51.072;17.174;2023-12-20T00:36:55;8.20;;;5.43;;
9076;SDS011;4574;51.072;17.174;2023-12-20T00:39:23;7.23;;;5.13;;
9076;SDS011;4574;51.072;17.174;2023-12-20T00:41:52;6.30;;;5.10;;
9076;SDS011;4574;51.072;17.174;2023-12-20T00:44:20;6.37;;;5.37;;
9076;SDS011;4574;51.072;17.174;2023-12-20T00:46:50;7.93;;;5.83;;
9076;SDS011;4574;51.072;17.174;2023-12-20T00:49:19;7.80;;;5.63;;
9076;SDS011;4574;51.072;17.174;2023-12-20T00:51:48;7.80;;;5.70;;
9076;SDS011;4574;51.072;17.174;2023-12-20T00:54:19;6.70;;;5.50;;
9076;SDS011;4574;51.072;17.174;2023-12-20T00:56:47;9.53;;;5.77;;
9076;SDS011;4574;51.072;17.174;2023-12-20T00:59:16;6.30;;;5.13;;
9076;SDS011;4574;51.072;17.174;2023-12-20T01:01:45;7.43;;;5.87;;
9076;SDS011;4574;51.072;17.174;2023-12-20T01:04:15;10.93;;;6.17;;
9076;SDS011;4574;51.072;17.174;2023-12-20T01:06:44;7.60;;;5.47;;
9076;SDS011;4574;51.072;17.174;2023-12-20T01:09:13;7.43;;;5.70;;
9076;SDS011;4574;51.072;17.174;2023-12-20T01:11:42;8.00;;;5.83;;
9076;SDS011;4574;51.072;17.174;2023-12-20T01:14:11;8.20;;;6.37;;
9076;SDS011;4574;51.072;17.174;2023-12-20T01:16:39;8.00;;;6.43;;
9076;SDS011;4574;51.072;17.174;2023-12-20T01:19:08;7.07;;;5.77;;
9076;SDS011;4574;51.072;17.174;2023-12-20T01:21:38;8.37;;;6.17;;
9076;SDS011;4574;51.072;17.174;2023-12-20T01:24:06;7.80;;;5.93;;
9076;SDS011;4574;51.072;17.174;2023-12-20T01:26:35;7.40;;;6.00;;
9076;SDS011;4574;51.072;17.174;2023-12-20T01:29:03;10.20;;;6.33;;
9076;SDS011;4574;51.072;17.174;2023-12-20T01:31:32;8.57;;;6.53;;
9076;SDS011;4574;51.072;17.174;2023-12-20T01:34:00;10.70;;;7.30;;
9076;SDS011;4574;51.072;17.174;2023-12-20T01:36:29;8.90;;;6.60;;
9076;SDS011;4574;51.072;17.174;2023-12-20T01:38:59;8.43;;;6.33;;
9076;SDS011;4574;51.072;17.174;2023-12-20T01:41:31;10.47;;;6.70;;
9076;SDS011;4574;51.072;17.174;2023-12-20T01:44:00;8.73;;;6.57;;
9076;SDS011;4574;51.072;17.174;2023-12-20T01:46:28;9.13;;;6.70;;
9076;SDS011;4574;51.072;17.174;2023-12-20T01:48:57;8.57;;;6.53;;
9076;SDS011;4574;51.072;17.174;2023-12-20T01:51:26;11.13;;;7.37;;
9076;SDS011;4574;51.072;17.174;2023-12-20T01:53:55;9.20;;;7.40;;
9076;SDS011;4574;51.072;17.174;2023-12-20T01:56:27;13.17;;;7.90;;
9076;SDS011;4574;51.072;17.174;2023-12-20T01:58:58;9.70;;;7.03;;
9076;SDS011;4574;51.072;17.174;2023-12-20T02:01:26;8.53;;;6.60;;
9076;SDS011;4574;51.072;17.174;2023-12-20T02:03:56;9.43;;;7.20;;
9076;SDS011;4574;51.072;17.174;2023-12-20T02:06:24;10.03;;;7.20;;
9076;SDS011;4574;51.072;17.174;2023-12-20T02:08:58;7.60;;;6.17;;
9076;SDS011;4574;51.072;17.174;2023-12-20T02:11:27;9.97;;;6.00;;
9076;SDS011;4574;51.072;17.174;2023-12-20T02:13:57;9.67;;;6.47;;
9076;SDS011;4574;51.072;17.174;2023-12-20T02:16:25;9.83;;;7.30;;
9076;SDS011;4574;51.072;17.174;2023-12-20T02:18:55;7.73;;;5.93;;
9076;SDS011;4574;51.072;17.174;2023-12-20T02:21:26;7.60;;;5.70;;
9076;SDS011;4574;51.072;17.174;2023-12-20T02:24:00;7.73;;;6.33;;
9076;SDS011;4574;51.072;17.174;2023-12-20T02:26:29;7.83;;;6.00;;
9076;SDS011;4574;51.072;17.174;2023-12-20T02:28:59;6.87;;;5.63;;
9076;SDS011;4574;51.072;17.174;2023-12-20T02:31:29;6.73;;;5.23;;
9076;SDS011;4574;51.072;17.174;2023-12-20T02:33:57;7.40;;;5.37;;
9076;SDS011;4574;51.072;17.174;2023-12-20T02:36:28;7.63;;;6.37;;
9076;SDS011;4574;51.072;17.174;2023-12-20T02:38:56;8.70;;;6.17;;
9076;SDS011;4574;51.072;17.174;2023-12-20T02:41:25;7.77;;;5.93;;
9076;SDS011;4574;51.072;17.174;2023-12-20T02:43:53;6.63;;;5.37;;
9076;SDS011;4574;51.072;17.174;2023-12-20T02:46:22;6.73;;;4.70;;
9076;SDS011;4574;51.072;17.174;2023-12-20T02:48:51;5.40;;;4.90;;
9076;SDS011;4574;51.072;17.174;2023-12-20T02:51:20;5.30;;;4.70;;
9076;SDS011;4574;51.072;17.174;2023-12-20T02:53:50;6.33;;;4.80;;
9076;SDS011;4574;51.072;17.174;2023-12-20T02:56:18;6.40;;;4.93;;
9076;SDS011;4574;51.072;17.174;2023-12-20T02:58:47;6.53;;;4.37;;
9076;SDS011;4574;51.072;17.174;2023-12-20T03:01:16;6.63;;;4.93;;
9076;SDS011;4574;51.072;17.174;2023-12-20T03:03:44;6.17;;;4.53;;
9076;SDS011;4574;51.072;17.174;2023-12-20T03:06:16;5.77;;;4.87;;
9076;SDS011;4574;51.072;17.174;2023-12-20T03:08:45;5.93;;;4.70;;
9076;SDS011;4574;51.072;17.174;2023-12-20T03:11:15;7.33;;;4.60;;
9076;SDS011;4574;51.072;17.174;2023-12-20T03:13:44;5.47;;;4.47;;
9076;SDS011;4574;51.072;17.174;2023-12-20T03:16:13;5.50;;;3.73;;
9076;SDS011;4574;51.072;17.174;2023-12-20T03:18:42;6.77;;;3.77;;
9076;SDS011;4574;51.072;17.174;2023-12-20T03:21:11;4.57;;;3.33;;
9076;SDS011;4574;51.072;17.174;2023-12-20T03:23:40;4.13;;;3.50;;
9076;SDS011;4574;51.072;17.174;2023-12-20T03:26:09;3.63;;;3.20;;
9076;SDS011;4574;51.072;17.174;2023-12-20T03:28:39;3.87;;;2.93;;
9076;SDS011;4574;51.072;17.174;2023-12-20T03:31:09;3.60;;;2.60;;
9076;SDS011;4574;51.072;17.174;2023-12-20T03:33:38;3.70;;;2.57;;
9076;SDS011;4574;51.072;17.174;2023-12-20T03:36:07;3.00;;;2.53;;
9076;SDS011;4574;51.072;17.174;2023-12-20T03:38:36;3.83;;;2.20;;
9076;SDS011;4574;51.072;17.174;2023-12-20T03:41:04;2.43;;;2.10;;
9076;SDS011;4574;51.072;17.174;2023-12-20T03:43:33;2.47;;;2.20;;
9076;SDS011;4574;51.072;17.174;2023-12-20T03:46:03;2.03;;;1.93;;
9076;SDS011;4574;51.072;17.174;2023-12-20T03:48:31;2.43;;;2.23;;
9076;SDS011;4574;51.072;17.174;2023-12-20T03:51:00;2.03;;;1.87;;
9076;SDS011;4574;51.072;17.174;2023-12-20T03:53:29;2.20;;;2.00;;
9076;SDS011;4574;51.072;17.174;2023-12-20T03:55:57;2.20;;;2.00;;
9076;SDS011;4574;51.072;17.174;2023-12-20T03:58:26;1.77;;;1.67;;
9076;SDS011;4574;51.072;17.174;2023-12-20T04:00:55;1.60;;;1.50;;
9076;SDS011;4574;51.072;17.174;2023-12-20T04:03:25;1.40;;;1.30;;
9076;SDS011;4574;51.072;17.174;2023-12-20T04:05:53;2.33;;;1.40;;
9076;SDS011;4574;51.072;17.174;2023-12-20T04:08:22;1.53;;;1.40;;
9076;SDS011;4574;51.072;17.174;2023-12-20T04:10:50;1.40;;;1.30;;
9076;SDS011;4574;51.072;17.174;2023-12-20T04:13:19;1.43;;;1.23;;
9076;SDS011;4574;51.072;17.174;2023-12-20T04:15:48;1.20;;;1.10;;
9076;SDS011;4574;51.072;17.174;2023-12-20T04:18:17;1.40;;;1.30;;
9076;SDS011;4574;51.072;17.174;2023-12-20T04:20:47;1.00;;;1.00;;
9076;SDS011;4574;51.072;17.174;2023-12-20T04:23:16;1.10;;;1.03;;
9076;SDS011;4574;51.072;17.174;2023-12-20T04:25:46;1.03;;;1.03;;
9076;SDS011;4574;51.072;17.174;2023-12-20T04:28:14;1.33;;;1.20;;
9076;SDS011;4574;51.072;17.174;2023-12-20T04:30:43;1.23;;;1.13;;
9076;SDS011;4574;51.072;17.174;2023-12-20T04:33:12;1.60;;;1.40;;
9076;SDS011;4574;51.072;17.174;2023-12-20T04:35:41;1.97;;;1.50;;
9076;SDS011;4574;51.072;17.174;2023-12-20T04:38:11;1.50;;;1.40;;
9076;SDS011;4574;51.072;17.174;2023-12-20T04:40:40;1.30;;;1.20;;
9076;SDS011;4574;51.072;17.174;2023-12-20T04:43:08;1.40;;;1.30;;
9076;SDS011;4574;51.072;17.174;2023-12-20T04:45:37;1.50;;;1.40;;
9076;SDS011;4574;51.072;17.174;2023-12-20T04:48:06;1.07;;;1.07;;
9076;SDS011;4574;51.072;17.174;2023-12-20T04:50:35;1.53;;;1.30;;
9076;SDS011;4574;51.072;17.174;2023-12-20T04:53:04;1.17;;;1.07;;
9076;SDS011;4574;51.072;17.174;2023-12-20T04:55:34;1.03;;;1.00;;
9076;SDS011;4574;51.072;17.174;2023-12-20T04:58:03;0.87;;;0.87;;
9076;SDS011;4574;51.072;17.174;2023-12-20T05:00:32;1.00;;;1.00;;
9076;SDS011;4574;51.072;17.174;2023-12-20T05:03:00;0.90;;;0.90;;
9076;SDS011;4574;51.072;17.174;2023-12-20T05:05:29;0.90;;;0.90;;
9076;SDS011;4574;51.072;17.174;2023-12-20T05:07:58;0.70;;;0.70;;
9076;SDS011;4574;51.072;17.174;2023-12-20T05:10:27;1.07;;;0.97;;
9076;SDS011;4574;51.072;17.174;2023-12-20T05:12:57;0.87;;;0.87;;
9076;SDS011;4574;51.072;17.174;2023-12-20T05:15:26;0.90;;;0.90;;
9076;SDS011;4574;51.072;17.174;2023-12-20T05:17:54;0.97;;;0.80;;
9076;SDS011;4574;51.072;17.174;2023-12-20T05:20:23;0.83;;;0.83;;
9076;SDS011;4574;51.072;17.174;2023-12-20T05:22:52;0.70;;;0.70;;
9076;SDS011;4574;51.072;17.174;2023-12-20T05:25:20;0.70;;;0.70;;
9076;SDS011;4574;51.072;17.174;2023-12-20T05:27:49;0.70;;;0.70;;
9076;SDS011;4574;51.072;17.174;2023-12-20T05:30:19;0.83;;;0.70;;
9076;SDS011;4574;51.072;17.174;2023-12-20T05:32:48;1.37;;;0.87;;
9076;SDS011;4574;51.072;17.174;2023-12-20T05:35:17;0.97;;;0.90;;
9076;SDS011;4574;51.072;17.174;2023-12-20T05:37:46;1.10;;;0.80;;
9076;SDS011;4574;51.072;17.174;2023-12-20T05:40:14;0.90;;;0.90;;
9076;SDS011;4574;51.072;17.174;2023-12-20T05:42:43;0.87;;;0.73;;
9076;SDS011;4574;51.072;17.174;2023-12-20T05:45:12;1.00;;;0.90;;
9076;SDS011;4574;51.072;17.174;2023-12-20T05:47:44;0.80;;;0.80;;
9076;SDS011;4574;51.072;17.174;2023-12-20T05:50:13;0.80;;;0.80;;
9076;SDS011;4574;51.072;17.174;2023-12-20T05:52:41;0.80;;;0.80;;
9076;SDS011;4574;51.072;17.174;2023-12-20T05:55:10;1.60;;;1.10;;
9076;SDS011;4574;51.072;17.174;2023-12-20T05:57:39;2.03;;;1.40;;
9076;SDS011;4574;51.072;17.174;2023-12-20T06:00:09;1.27;;;1.17;;
9076;SDS011;4574;51.072;17.174;2023-12-20T06:02:38;1.63;;;1.30;;
9076;SDS011;4574;51.072;17.174;2023-12-20T06:05:08;1.83;;;1.40;;
9076;SDS011;4574;51.072;17.174;2023-12-20T06:07:37;5.83;;;1.60;;
9076;SDS011;4574;51.072;17.174;2023-12-20T06:10:06;5.17;;;1.43;;
9076;SDS011;4574;51.072;17.174;2023-12-20T06:12:35;6.07;;;1.67;;
9076;SDS011;4574;51.072;17.174;2023-12-20T06:15:04;5.63;;;1.70;;
9076;SDS011;4574;51.072;17.174;2023-12-20T06:17:33;1.90;;;1.37;;
9076;SDS011;4574;51.072;17.174;2023-12-20T06:20:02;3.40;;;1.60;;
9076;SDS011;4574;51.072;17.174;2023-12-20T06:22:36;2.50;;;1.43;;
9076;SDS011;4574;51.072;17.174;2023-12-20T06:25:04;1.70;;;1.60;;
9076;SDS011;4574;51.072;17.174;2023-12-20T06:27:33;1.90;;;1.67;;
9076;SDS011;4574;51.072;17.174;2023-12-20T06:30:02;1.83;;;1.30;;
9076;SDS011;4574;51.072;17.174;2023-12-20T06:32:31;1.67;;;1.40;;
9076;SDS011;4574;51.072;17.174;2023-12-20T06:35:01;1.40;;;1.30;;
9076;SDS011;4574;51.072;17.174;2023-12-20T06:37:31;1.47;;;1.30;;
9076;SDS011;4574;51.072;17.174;2023-12-20T06:40:01;1.73;;;1.30;;
9076;SDS011;4574;51.072;17.174;2023-12-20T06:42:30;2.10;;;1.70;;
9076;SDS011;4574;51.072;17.174;2023-12-20T06:45:09;1.50;;;1.40;;
9076;SDS011;4574;51.072;17.174;2023-12-20T06:47:39;1.30;;;1.20;;
9076;SDS011;4574;51.072;17.174;2023-12-20T06:50:07;2.70;;;1.47;;
9076;SDS011;4574;51.072;17.174;2023-12-20T06:52:36;1.87;;;1.50;;
9076;SDS011;4574;51.072;17.174;2023-12-20T06:55:07;1.60;;;1.50;;
9076;SDS011;4574;51.072;17.174;2023-12-20T06:57:36;1.57;;;1.47;;
9076;SDS011;4574;51.072;17.174;2023-12-20T07:00:04;1.90;;;1.50;;
9076;SDS011;4574;51.072;17.174;2023-12-20T07:02:35;1.93;;;1.33;;
9076;SDS011;4574;51.072;17.174;2023-12-20T07:05:03;1.93;;;1.33;;
9076;SDS011;4574;51.072;17.174;2023-12-20T07:07:33;2.20;;;1.93;;
9076;SDS011;4574;51.072;17.174;2023-12-20T07:10:01;2.97;;;2.00;;
9076;SDS011;4574;51.072;17.174;2023-12-20T07:12:32;2.97;;;1.73;;
9076;SDS011;4574;51.072;17.174;2023-12-20T07:15:02;2.13;;;1.70;;
9076;SDS011;4574;51.072;17.174;2023-12-20T07:17:32;5.13;;;1.73;;
9076;SDS011;4574;51.072;17.174;2023-12-20T07:20:01;3.73;;;1.70;;
9076;SDS011;4574;51.072;17.174;2023-12-20T07:22:31;1.60;;;1.40;;
9076;SDS011;4574;51.072;17.174;2023-12-20T07:24:59;1.97;;;1.50;;
9076;SDS011;4574;51.072;17.174;2023-12-20T07:27:28;1.30;;;1.20;;
9076;SDS011;4574;51.072;17.174;2023-12-20T07:29:58;1.40;;;1.20;;
9076;SDS011;4574;51.072;17.174;2023-12-20T07:32:27;1.90;;;1.30;;
9076;SDS011;4574;51.072;17.174;2023-12-20T07:34:55;1.50;;;1.40;;
9076;SDS011;4574;51.072;17.174;2023-12-20T07:37:24;2.20;;;1.80;;
9076;SDS011;4574;51.072;17.174;2023-12-20T07:39:53;1.50;;;1.37;;
9076;SDS011;4574;51.072;17.174;2023-12-20T07:42:22;2.17;;;1.60;;
9076;SDS011;4574;51.072;17.174;2023-12-20T07:44:50;1.80;;;1.60;;
9076;SDS011;4574;51.072;17.174;2023-12-20T07:47:20;2.67;;;1.63;;
9076;SDS011;4574;51.072;17.174;2023-12-20T07:49:49;3.57;;;2.03;;
9076;SDS011;4574;51.072;17.174;2023-12-20T07:52:18;5.07;;;2.10;;
9076;SDS011;4574;51.072;17.174;2023-12-20T07:54:48;4.70;;;1.97;;
9076;SDS011;4574;51.072;17.174;2023-12-20T07:57:17;2.97;;;2.03;;
9076;SDS011;4574;51.072;17.174;2023-12-20T07:59:46;2.67;;;1.73;;
9076;SDS011;4574;51.072;17.174;2023-12-20T08:02:14;2.90;;;1.80;;
9076;SDS011;4574;51.072;17.174;2023-12-20T08:04:44;2.40;;;1.40;;
9076;SDS011;4574;51.072;17.174;2023-12-20T08:07:13;2.00;;;1.70;;
9076;SDS011;4574;51.072;17.174;2023-12-20T08:09:42;3.00;;;1.97;;
9076;SDS011;4574;51.072;17.174;2023-12-20T08:12:10;2.50;;;1.73;;
9076;SDS011;4574;51.072;17.174;2023-12-20T08:14:39;2.67;;;1.47;;
9076;SDS011;4574;51.072;17.174;2023-12-20T08:17:08;3.33;;;1.30;;
9076;SDS011;4574;51.072;17.174;2023-12-20T08:19:36;1.40;;;1.30;;
9076;SDS011;4574;51.072;17.174;2023-12-20T08:22:07;2.20;;;1.60;;
9076;SDS011;4574;51.072;17.174;2023-12-20T08:24:35;2.17;;;1.63;;
9076;SDS011;4574;51.072;17.174;2023-12-20T08:27:04;2.30;;;1.30;;
9076;SDS011;4574;51.072;17.174;2023-12-20T08:29:33;1.20;;;1.10;;
9076;SDS011;4574;51.072;17.174;2023-12-20T08:32:01;2.90;;;1.37;;
9076;SDS011;4574;51.072;17.174;2023-12-20T08:34:30;2.50;;;1.30;;
9076;SDS011;4574;51.072;17.174;2023-12-20T08:36:59;1.13;;;1.03;;
9076;SDS011;4574;51.072;17.174;2023-12-20T08:39:29;3.20;;;1.20;;
9076;SDS011;4574;51.072;17.174;2023-12-20T08:42:00;1.30;;;1.20;;
9076;SDS011;4574;51.072;17.174;2023-12-20T08:44:28;2.00;;;1.37;;
9076;SDS011;4574;51.072;17.174;2023-12-20T08:46:57;3.57;;;1.30;;
9076;SDS011;4574;51.072;17.174;2023-12-20T08:49:26;2.17;;;1.40;;
9076;SDS011;4574;51.072;17.174;2023-12-20T08:51:55;2.43;;;1.47;;
9076;SDS011;4574;51.072;17.174;2023-12-20T08:54:24;1.77;;;1.13;;
9076;SDS011;4574;51.072;17.174;2023-12-20T08:56:54;1.67;;;1.30;;
9076;SDS011;4574;51.072;17.174;2023-12-20T08:59:22;1.90;;;1.10;;
9076;SDS011;4574;51.072;17.174;2023-12-20T09:01:51;2.03;;;1.50;;
9076;SDS011;4574;51.072;17.174;2023-12-20T09:04:21;1.90;;;1.43;;
9076;SDS011;4574;51.072;17.174;2023-12-20T09:06:50;2.40;;;1.60;;
9076;SDS011;4574;51.072;17.174;2023-12-20T09:09:19;2.17;;;1.50;;
9076;SDS011;4574;51.072;17.174;2023-12-20T09:11:48;2.50;;;1.60;;
9076;SDS011;4574;51.072;17.174;2023-12-20T09:14:19;1.67;;;1.10;;
9076;SDS011;4574;51.072;17.174;2023-12-20T09:16:48;2.10;;;1.40;;
9076;SDS011;4574;51.072;17.174;2023-12-20T09:19:17;2.90;;;1.20;;
9076;SDS011;4574;51.072;17.174;2023-12-20T09:21:47;1.63;;;1.50;;
9076;SDS011;4574;51.072;17.174;2023-12-20T09:24:15;1.13;;;1.10;;
9076;SDS011;4574;51.072;17.174;2023-12-20T09:26:44;2.43;;;1.20;;
9076;SDS011;4574;51.072;17.174;2023-12-20T09:29:12;3.70;;;1.40;;
9076;SDS011;4574;51.072;17.174;2023-12-20T09:31:43;2.27;;;1.20;;
9076;SDS011;4574;51.072;17.174;2023-12-20T09:34:15;1.40;;;1.20;;
9076;SDS011;4574;51.072;17.174;2023-12-20T09:36:44;1.10;;;1.00;;
9076;SDS011;4574;51.072;17.174;2023-12-20T09:39:14;1.50;;;1.10;;
9076;SDS011;4574;51.072;17.174;2023-12-20T09:41:43;1.27;;;1.17;;
9076;SDS011;4574;51.072;17.174;2023-12-20T09:44:14;1.20;;;1.10;;
9076;SDS011;4574;51.072;17.174;2023-12-20T09:46:48;1.27;;;1.17;;
9076;SDS011;4574;51.072;17.174;2023-12-20T09:49:18;1.10;;;1.00;;
9076;SDS011;4574;51.072;17.174;2023-12-20T09:51:47;1.10;;;1.00;;
9076;SDS011;4574;51.072;17.174;2023-12-20T09:54:18;1.20;;;1.10;;
9076;SDS011;4574;51.072;17.174;2023-12-20T09:56:46;1.30;;;1.20;;
9076;SDS011;4574;51.072;17.174;2023-12-20T09:59:15;1.20;;;1.10;;
9076;SDS011;4574;51.072;17.174;2023-12-20T10:01:45;1.30;;;1.20;;
9076;SDS011;4574;51.072;17.174;2023-12-20T10:04:14;1.23;;;1.20;;
9076;SDS011;4574;51.072;17.174;2023-12-20T10:06:46;1.40;;;1.30;;
9076;SDS011;4574;51.072;17.174;2023-12-20T10:09:15;1.40;;;1.30;;
9076;SDS011;4574;51.072;17.174;2023-12-20T10:11:44;1.87;;;1.23;;
9076;SDS011;4574;51.072;17.174;2023-12-20T10:14:13;1.83;;;1.20;;
9076;SDS011;4574;51.072;17.174;2023-12-20T10:16:42;1.63;;;1.50;;
9076;SDS011;4574;51.072;17.174;2023-12-20T10:19:12;1.93;;;1.30;;
9076;SDS011;4574;51.072;17.174;2023-12-20T10:21:44;3.60;;;1.30;;
9076;SDS011;4574;51.072;17.174;2023-12-20T10:24:16;1.40;;;1.30;;
9076;SDS011;4574;51.072;17.174;2023-12-20T10:26:46;1.30;;;1.20;;
9076;SDS011;4574;51.072;17.174;2023-12-20T10:29:14;1.43;;;1.33;;
9076;SDS011;4574;51.072;17.174;2023-12-20T10:31:43;1.43;;;1.30;;
9076;SDS011;4574;51.072;17.174;2023-12-20T10:34:13;1.63;;;1.40;;
9076;SDS011;4574;51.072;17.174;2023-12-20T10:36:42;1.70;;;1.60;;
9076;SDS011;4574;51.072;17.174;2023-12-20T10:39:12;2.60;;;1.73;;
9076;SDS011;4574;51.072;17.174;2023-12-20T10:41:43;1.40;;;1.23;;
9076;SDS011;4574;51.072;17.174;2023-12-20T10:44:13;2.93;;;1.30;;
9076;SDS011;4574;51.072;17.174;2023-12-20T10:46:43;3.03;;;1.30;;
9076;SDS011;4574;51.072;17.174;2023-12-20T10:49:19;1.50;;;1.40;;
9076;SDS011;4574;51.072;17.174;2023-12-20T10:51:48;3.83;;;1.37;;
9076;SDS011;4574;51.072;17.174;2023-12-20T10:54:19;1.80;;;1.50;;
9076;SDS011;4574;51.072;17.174;2023-12-20T10:56:48;3.07;;;1.57;;
9076;SDS011;4574;51.072;17.174;2023-12-20T10:59:20;1.50;;;1.40;;
9076;SDS011;4574;51.072;17.174;2023-12-20T11:01:49;4.13;;;1.97;;
9076;SDS011;4574;51.072;17.174;2023-12-20T11:04:21;2.43;;;1.60;;
9076;SDS011;4574;51.072;17.174;2023-12-20T11:06:54;3.33;;;1.90;;
9076;SDS011;4574;51.072;17.174;2023-12-20T11:09:31;4.20;;;1.77;;
9076;SDS011;4574;51.072;17.174;2023-12-20T11:12:05;3.67;;;1.83;;
9076;SDS011;4574;51.072;17.174;2023-12-20T11:14:41;2.20;;;1.50;;
9076;SDS011;4574;51.072;17.174;2023-12-20T11:17:14;2.33;;;1.50;;
9076;SDS011;4574;51.072;17.174;2023-12-20T11:22:37;4.67;;;1.73;;
9076;SDS011;4574;51.072;17.174;2023-12-20T11:25:09;3.63;;;1.97;;
9076;SDS011;4574;51.072;17.174;2023-12-20T11:27:40;1.83;;;1.23;;
9076;SDS011;4574;51.072;17.174;2023-12-20T11:30:13;8.00;;;1.70;;
9076;SDS011;4574;51.072;17.174;2023-12-20T11:32:44;1.70;;;1.57;;
9076;SDS011;4574;51.072;17.174;2023-12-20T11:35:19;2.17;;;1.57;;
9076;SDS011;4574;51.072;17.174;2023-12-20T11:37:50;3.47;;;1.60;;
9076;SDS011;4574;51.072;17.174;2023-12-20T11:40:19;3.53;;;1.93;;
9076;SDS011;4574;51.072;17.174;2023-12-20T11:42:49;4.30;;;2.00;;
9076;SDS011;4574;51.072;17.174;2023-12-20T11:45:18;4.77;;;1.80;;
9076;SDS011;4574;51.072;17.174;2023-12-20T11:47:50;6.27;;;2.10;;
9076;SDS011;4574;51.072;17.174;2023-12-20T11:50:22;6.97;;;1.77;;
9076;SDS011;4574;51.072;17.174;2023-12-20T11:52:52;2.53;;;1.70;;
9076;SDS011;4574;51.072;17.174;2023-12-20T11:55:22;2.50;;;1.60;;
9076;SDS011;4574;51.072;17.174;2023-12-20T11:57:51;2.17;;;1.37;;
9076;SDS011;4574;51.072;17.174;2023-12-20T12:00:20;3.23;;;1.77;;
9076;SDS011;4574;51.072;17.174;2023-12-20T12:02:56;3.23;;;1.70;;
9076;SDS011;4574;51.072;17.174;2023-12-20T12:05:27;2.90;;;1.60;;
9076;SDS011;4574;51.072;17.174;2023-12-20T12:07:55;5.07;;;1.57;;
9076;SDS011;4574;51.072;17.174;2023-12-20T12:10:24;5.23;;;2.00;;
9076;SDS011;4574;51.072;17.174;2023-12-20T12:12:53;3.53;;;1.60;;
9076;SDS011;4574;51.072;17.174;2023-12-20T12:15:22;2.23;;;1.50;;
9076;SDS011;4574;51.072;17.174;2023-12-20T12:17:54;4.23;;;1.97;;
9076;SDS011;4574;51.072;17.174;2023-12-20T12:20:23;5.63;;;1.70;;
9076;SDS011;4574;51.072;17.174;2023-12-20T12:23:00;4.90;;;1.57;;
9076;SDS011;4574;51.072;17.174;2023-12-20T12:25:29;4.40;;;1.70;;
9076;SDS011;4574;51.072;17.174;2023-12-20T12:27:59;3.00;;;1.40;;
9076;SDS011;4574;51.072;17.174;2023-12-20T12:30:28;1.93;;;1.50;;
9076;SDS011;4574;51.072;17.174;2023-12-20T12:33:04;2.80;;;1.57;;
9076;SDS011;4574;51.072;17.174;2023-12-20T12:35:34;2.80;;;1.60;;
9076;SDS011;4574;51.072;17.174;2023-12-20T12:38:04;1.53;;;1.20;;
9076;SDS011;4574;51.072;17.174;2023-12-20T12:40:36;2.47;;;1.50;;
9076;SDS011;4574;51.072;17.174;2023-12-20T12:43:04;4.17;;;1.40;;
9076;SDS011;4574;51.072;17.174;2023-12-20T12:45:33;1.73;;;1.33;;
9076;SDS011;4574;51.072;17.174;2023-12-20T12:48:02;2.87;;;1.23;;
9076;SDS011;4574;51.072;17.174;2023-12-20T12:50:31;3.60;;;1.80;;
9076;SDS011;4574;51.072;17.174;2023-12-20T12:53:00;7.47;;;1.73;;
9076;SDS011;4574;51.072;17.174;2023-12-20T12:55:30;11.57;;;1.90;;
9076;SDS011;4574;51.072;17.174;2023-12-20T12:57:59;8.97;;;2.33;;
9076;SDS011;4574;51.072;17.174;2023-12-20T13:00:28;8.40;;;1.93;;
9076;SDS011;4574;51.072;17.174;2023-12-20T13:02:57;3.40;;;1.43;;
9076;SDS011;4574;51.072;17.174;2023-12-20T13:05:25;7.13;;;1.83;;
9076;SDS011;4574;51.072;17.174;2023-12-20T13:07:55;3.73;;;1.53;;
9076;SDS011;4574;51.072;17.174;2023-12-20T13:10:25;2.33;;;1.43;;
9076;SDS011;4574;51.072;17.174;2023-12-20T13:12:55;2.50;;;1.43;;
9076;SDS011;4574;51.072;17.174;2023-12-20T13:15:24;1.77;;;1.23;;
9076;SDS011;4574;51.072;17.174;2023-12-20T13:17:52;2.23;;;1.43;;
9076;SDS011;4574;51.072;17.174;2023-12-20T13:20:21;2.70;;;1.30;;
9076;SDS011;4574;51.072;17.174;2023-12-20T13:22:50;2.57;;;1.27;;
9076;SDS011;4574;51.072;17.174;2023-12-20T13:25:18;3.90;;;1.37;;
9076;SDS011;4574;51.072;17.174;2023-12-20T13:27:47;5.07;;;1.57;;
9076;SDS011;4574;51.072;17.174;2023-12-20T13:30:18;3.77;;;1.40;;
9076;SDS011;4574;51.072;17.174;2023-12-20T13:32:47;4.37;;;1.37;;
9076;SDS011;4574;51.072;17.174;2023-12-20T13:35:16;4.03;;;1.67;;
9076;SDS011;4574;51.072;17.174;2023-12-20T13:37:44;5.03;;;2.03;;
9076;SDS011;4574;51.072;17.174;2023-12-20T13:40:13;2.07;;;1.20;;
9076;SDS011;4574;51.072;17.174;2023-12-20T13:42:42;2.63;;;1.60;;
9076;SDS011;4574;51.072;17.174;2023-12-20T13:45:12;2.97;;;1.77;;
9076;SDS011;4574;51.072;17.174;2023-12-20T13:47:42;3.90;;;1.27;;
9076;SDS011;4574;51.072;17.174;2023-12-20T13:50:11;4.47;;;1.40;;
9076;SDS011;4574;51.072;17.174;2023-12-20T13:52:40;2.10;;;1.07;;
9076;SDS011;4574;51.072;17.174;2023-12-20T13:55:09;5.07;;;1.43;;
9076;SDS011;4574;51.072;17.174;2023-12-20T13:57:37;3.20;;;1.40;;
9076;SDS011;4574;51.072;17.174;2023-12-20T14:00:21;3.43;;;1.87;;
9076;SDS011;4574;51.072;17.174;2023-12-20T14:02:51;4.40;;;1.63;;
9076;SDS011;4574;51.072;17.174;2023-12-20T14:05:19;3.83;;;1.27;;
9076;SDS011;4574;51.072;17.174;2023-12-20T14:07:54;3.33;;;1.70;;
9076;SDS011;4574;51.072;17.174;2023-12-20T14:10:24;2.83;;;1.40;;
9076;SDS011;4574;51.072;17.174;2023-12-20T14:12:53;6.03;;;1.70;;
9076;SDS011;4574;51.072;17.174;2023-12-20T14:15:22;2.43;;;1.50;;
9076;SDS011;4574;51.072;17.174;2023-12-20T14:17:53;5.97;;;1.97;;
9076;SDS011;4574;51.072;17.174;2023-12-20T14:20:22;2.37;;;1.20;;
9076;SDS011;4574;51.072;17.174;2023-12-20T14:22:51;5.13;;;1.90;;
9076;SDS011;4574;51.072;17.174;2023-12-20T14:25:20;5.17;;;1.40;;
9076;SDS011;4574;51.072;17.174;2023-12-20T14:27:50;3.33;;;1.77;;
9076;SDS011;4574;51.072;17.174;2023-12-20T14:30:19;5.57;;;1.60;;
9076;SDS011;4574;51.072;17.174;2023-12-20T14:32:48;5.13;;;1.40;;
9076;SDS011;4574;51.072;17.174;2023-12-20T14:35:18;5.07;;;2.10;;
9076;SDS011;4574;51.072;17.174;2023-12-20T14:37:47;5.90;;;1.90;;
9076;SDS011;4574;51.072;17.174;2023-12-20T14:40:17;9.27;;;5.97;;
9076;SDS011;4574;51.072;17.174;2023-12-20T14:42:45;26.43;;;14.57;;
9076;SDS011;4574;51.072;17.174;2023-12-20T14:45:15;3.50;;;2.50;;
9076;SDS011;4574;51.072;17.174;2023-12-20T14:47:44;5.00;;;3.43;;
9076;SDS011;4574;51.072;17.174;2023-12-20T14:50:15;7.23;;;4.50;;
9076;SDS011;4574;51.072;17.174;2023-12-20T14:52:47;8.90;;;6.60;;
9076;SDS011;4574;51.072;17.174;2023-12-20T14:55:16;22.63;;;14.60;;
9076;SDS011;4574;51.072;17.174;2023-12-20T14:57:44;23.03;;;14.40;;
9076;SDS011;4574;51.072;17.174;2023-12-20T15:00:16;17.03;;;10.27;;
9076;SDS011;4574;51.072;17.174;2023-12-20T15:02:45;8.43;;;5.37;;
9076;SDS011;4574;51.072;17.174;2023-12-20T15:05:14;6.60;;;4.20;;
9076;SDS011;4574;51.072;17.174;2023-12-20T15:07:44;11.60;;;5.27;;
9076;SDS011;4574;51.072;17.174;2023-12-20T15:10:15;7.83;;;3.80;;
9076;SDS011;4574;51.072;17.174;2023-12-20T15:12:45;7.90;;;4.37;;
9076;SDS011;4574;51.072;17.174;2023-12-20T15:15:13;13.10;;;6.33;;
9076;SDS011;4574;51.072;17.174;2023-12-20T15:17:42;9.20;;;5.27;;